sensor_id;sensor_type;location;lat;lon;timestamp;temperature;humidity
73750;SHT30;62058;48.406;-4.514;2022-08-20T00:02:22;18.25;68.22
73750;SHT30;62058;48.406;-4.514;2022-08-20T00:04:49;18.24;68.60
73750;SHT30;62058;48.406;-4.514;2022-08-20T00:07:14;18.19;68.13
73750;SHT30;62058;48.406;-4.514;2022-08-20T00:09:40;18.18;68.60
73750;SHT30;62058;48.406;-4.514;2022-08-20T00:12:06;18.12;67.42
73750;SHT30;62058;48.406;-4.514;2022-08-20T00:14:33;18.11;68.38
73750;SHT30;62058;48.406;-4.514;2022-08-20T00:16:58;18.07;69.05
73750;SHT30;62058;48.406;-4.514;2022-08-20T00:19:24;17.97;68.96
73750;SHT30;62058;48.406;-4.514;2022-08-20T00:21:49;17.97;68.13
73750;SHT30;62058;48.406;-4.514;2022-08-20T00:24:15;17.96;68.60
73750;SHT30;62058;48.406;-4.514;2022-08-20T00:26:40;17.98;68.28
73750;SHT30;62058;48.406;-4.514;2022-08-20T00:29:05;17.97;68.00
73750;SHT30;62058;48.406;-4.514;2022-08-20T00:31:31;17.93;68.51
73750;SHT30;62058;48.406;-4.514;2022-08-20T00:33:57;17.91;68.22
73750;SHT30;62058;48.406;-4.514;2022-08-20T00:36:23;17.88;68.92
73750;SHT30;62058;48.406;-4.514;2022-08-20T00:38:49;17.83;68.90
73750;SHT30;62058;48.406;-4.514;2022-08-20T00:41:19;17.81;68.73
73750;SHT30;62058;48.406;-4.514;2022-08-20T00:43:49;17.77;68.50
73750;SHT30;62058;48.406;-4.514;2022-08-20T00:46:25;17.76;68.78
73750;SHT30;62058;48.406;-4.514;2022-08-20T00:48:54;17.70;68.91
73750;SHT30;62058;48.406;-4.514;2022-08-20T00:51:31;17.69;68.66
73750;SHT30;62058;48.406;-4.514;2022-08-20T00:54:14;17.67;68.94
73750;SHT30;62058;48.406;-4.514;2022-08-20T00:56:43;17.63;68.43
73750;SHT30;62058;48.406;-4.514;2022-08-20T00:59:13;17.62;68.65
73750;SHT30;62058;48.406;-4.514;2022-08-20T01:01:40;17.57;68.35
73750;SHT30;62058;48.406;-4.514;2022-08-20T01:04:06;17.56;68.67
73750;SHT30;62058;48.406;-4.514;2022-08-20T01:06:32;17.53;68.75
73750;SHT30;62058;48.406;-4.514;2022-08-20T01:08:57;17.54;68.69
73750;SHT30;62058;48.406;-4.514;2022-08-20T01:11:27;17.50;68.53
73750;SHT30;62058;48.406;-4.514;2022-08-20T01:14:00;17.46;68.94
73750;SHT30;62058;48.406;-4.514;2022-08-20T01:16:30;17.43;69.34
73750;SHT30;62058;48.406;-4.514;2022-08-20T01:18:58;17.37;69.34
73750;SHT30;62058;48.406;-4.514;2022-08-20T01:21:25;17.35;69.50
73750;SHT30;62058;48.406;-4.514;2022-08-20T01:24:18;17.36;69.39
73750;SHT30;62058;48.406;-4.514;2022-08-20T01:26:47;17.35;69.56
73750;SHT30;62058;48.406;-4.514;2022-08-20T01:29:19;17.32;68.54
73750;SHT30;62058;48.406;-4.514;2022-08-20T01:31:46;17.32;68.97
73750;SHT30;62058;48.406;-4.514;2022-08-20T01:34:14;17.27;69.37
73750;SHT30;62058;48.406;-4.514;2022-08-20T01:36:52;17.29;69.39
73750;SHT30;62058;48.406;-4.514;2022-08-20T01:39:24;17.25;69.19
73750;SHT30;62058;48.406;-4.514;2022-08-20T01:42:13;17.16;69.32
73750;SHT30;62058;48.406;-4.514;2022-08-20T01:44:43;17.12;69.34
73750;SHT30;62058;48.406;-4.514;2022-08-20T01:47:13;17.11;69.89
73750;SHT30;62058;48.406;-4.514;2022-08-20T01:49:42;17.06;69.88
73750;SHT30;62058;48.406;-4.514;2022-08-20T01:52:14;17.05;69.52
73750;SHT30;62058;48.406;-4.514;2022-08-20T01:54:42;17.04;68.76
73750;SHT30;62058;48.406;-4.514;2022-08-20T01:57:13;17.02;69.45
73750;SHT30;62058;48.406;-4.514;2022-08-20T01:59:39;17.01;69.61
73750;SHT30;62058;48.406;-4.514;2022-08-20T02:02:05;16.98;69.56
73750;SHT30;62058;48.406;-4.514;2022-08-20T02:04:32;16.95;69.75
73750;SHT30;62058;48.406;-4.514;2022-08-20T02:07:00;16.92;69.86
73750;SHT30;62058;48.406;-4.514;2022-08-20T02:09:32;16.88;69.67
73750;SHT30;62058;48.406;-4.514;2022-08-20T02:11:58;16.86;69.68
73750;SHT30;62058;48.406;-4.514;2022-08-20T02:14:24;16.82;69.39
73750;SHT30;62058;48.406;-4.514;2022-08-20T02:16:50;16.79;69.47
73750;SHT30;62058;48.406;-4.514;2022-08-20T02:19:43;16.81;68.89
73750;SHT30;62058;48.406;-4.514;2022-08-20T02:22:19;16.76;69.27
73750;SHT30;62058;48.406;-4.514;2022-08-20T02:24:46;16.72;69.58
73750;SHT30;62058;48.406;-4.514;2022-08-20T02:27:12;16.69;70.10
73750;SHT30;62058;48.406;-4.514;2022-08-20T02:29:38;16.67;69.83
73750;SHT30;62058;48.406;-4.514;2022-08-20T02:32:04;16.62;69.87
73750;SHT30;62058;48.406;-4.514;2022-08-20T02:34:31;16.51;69.68
73750;SHT30;62058;48.406;-4.514;2022-08-20T02:37:00;16.51;70.06
73750;SHT30;62058;48.406;-4.514;2022-08-20T02:39:25;16.50;69.90
73750;SHT30;62058;48.406;-4.514;2022-08-20T02:41:51;16.50;70.13
73750;SHT30;62058;48.406;-4.514;2022-08-20T02:44:17;16.44;69.98
73750;SHT30;62058;48.406;-4.514;2022-08-20T02:46:45;16.44;70.18
73750;SHT30;62058;48.406;-4.514;2022-08-20T02:49:11;16.43;69.78
73750;SHT30;62058;48.406;-4.514;2022-08-20T02:51:37;16.44;69.47
73750;SHT30;62058;48.406;-4.514;2022-08-20T02:54:02;16.43;70.21
73750;SHT30;62058;48.406;-4.514;2022-08-20T02:56:28;16.38;70.18
73750;SHT30;62058;48.406;-4.514;2022-08-20T02:58:53;16.37;70.31
73750;SHT30;62058;48.406;-4.514;2022-08-20T03:01:18;16.35;69.88
73750;SHT30;62058;48.406;-4.514;2022-08-20T03:03:44;16.23;70.21
73750;SHT30;62058;48.406;-4.514;2022-08-20T03:06:11;16.25;69.74
73750;SHT30;62058;48.406;-4.514;2022-08-20T03:08:37;16.23;70.28
73750;SHT30;62058;48.406;-4.514;2022-08-20T03:11:03;16.21;70.35
73750;SHT30;62058;48.406;-4.514;2022-08-20T03:13:30;16.20;69.77
73750;SHT30;62058;48.406;-4.514;2022-08-20T03:15:59;16.17;70.00
73750;SHT30;62058;48.406;-4.514;2022-08-20T03:18:27;16.14;70.54
73750;SHT30;62058;48.406;-4.514;2022-08-20T03:20:53;16.14;70.03
73750;SHT30;62058;48.406;-4.514;2022-08-20T03:23:19;16.13;70.54
73750;SHT30;62058;48.406;-4.514;2022-08-20T03:25:46;16.09;70.48
73750;SHT30;62058;48.406;-4.514;2022-08-20T03:28:12;16.09;70.62
73750;SHT30;62058;48.406;-4.514;2022-08-20T03:30:39;16.06;70.99
73750;SHT30;62058;48.406;-4.514;2022-08-20T03:33:04;16.04;70.81
73750;SHT30;62058;48.406;-4.514;2022-08-20T03:35:31;16.03;71.11
73750;SHT30;62058;48.406;-4.514;2022-08-20T03:37:56;15.96;70.61
73750;SHT30;62058;48.406;-4.514;2022-08-20T03:40:28;15.96;70.39
73750;SHT30;62058;48.406;-4.514;2022-08-20T03:42:56;15.94;70.58
73750;SHT30;62058;48.406;-4.514;2022-08-20T03:45:23;15.91;70.50
73750;SHT30;62058;48.406;-4.514;2022-08-20T03:47:50;15.90;70.36
73750;SHT30;62058;48.406;-4.514;2022-08-20T03:50:19;15.87;70.40
73750;SHT30;62058;48.406;-4.514;2022-08-20T03:52:45;15.85;70.01
73750;SHT30;62058;48.406;-4.514;2022-08-20T03:55:11;15.83;70.17
73750;SHT30;62058;48.406;-4.514;2022-08-20T03:57:44;15.82;69.98
73750;SHT30;62058;48.406;-4.514;2022-08-20T04:00:11;15.85;70.41
73750;SHT30;62058;48.406;-4.514;2022-08-20T04:02:38;15.89;70.03
73750;SHT30;62058;48.406;-4.514;2022-08-20T04:05:04;15.82;70.07
73750;SHT30;62058;48.406;-4.514;2022-08-20T04:07:30;15.80;70.53
73750;SHT30;62058;48.406;-4.514;2022-08-20T04:09:56;15.80;70.23
73750;SHT30;62058;48.406;-4.514;2022-08-20T04:12:22;15.76;70.40
73750;SHT30;62058;48.406;-4.514;2022-08-20T04:14:49;15.74;70.16
73750;SHT30;62058;48.406;-4.514;2022-08-20T04:17:15;15.73;70.38
73750;SHT30;62058;48.406;-4.514;2022-08-20T04:19:41;15.72;70.01
73750;SHT30;62058;48.406;-4.514;2022-08-20T04:22:08;15.73;70.48
73750;SHT30;62058;48.406;-4.514;2022-08-20T04:24:34;15.72;70.38
73750;SHT30;62058;48.406;-4.514;2022-08-20T04:27:02;15.67;69.89
73750;SHT30;62058;48.406;-4.514;2022-08-20T04:29:29;15.66;70.41
73750;SHT30;62058;48.406;-4.514;2022-08-20T04:31:54;15.65;70.46
73750;SHT30;62058;48.406;-4.514;2022-08-20T04:34:20;15.63;70.70
73750;SHT30;62058;48.406;-4.514;2022-08-20T04:36:45;15.65;70.64
73750;SHT30;62058;48.406;-4.514;2022-08-20T04:39:15;15.63;71.50
73750;SHT30;62058;48.406;-4.514;2022-08-20T04:41:42;15.63;71.48
73750;SHT30;62058;48.406;-4.514;2022-08-20T04:44:08;15.63;70.73
73750;SHT30;62058;48.406;-4.514;2022-08-20T04:46:35;15.65;71.01
73750;SHT30;62058;48.406;-4.514;2022-08-20T04:49:01;15.63;70.62
73750;SHT30;62058;48.406;-4.514;2022-08-20T04:51:27;15.60;70.34
73750;SHT30;62058;48.406;-4.514;2022-08-20T04:53:55;15.60;70.15
73750;SHT30;62058;48.406;-4.514;2022-08-20T04:56:23;15.56;71.00
73750;SHT30;62058;48.406;-4.514;2022-08-20T04:58:52;15.55;70.80
73750;SHT30;62058;48.406;-4.514;2022-08-20T05:01:17;15.55;70.35
73750;SHT30;62058;48.406;-4.514;2022-08-20T05:03:43;15.49;70.80
73750;SHT30;62058;48.406;-4.514;2022-08-20T05:06:10;15.46;70.72
73750;SHT30;62058;48.406;-4.514;2022-08-20T05:08:37;15.45;71.17
73750;SHT30;62058;48.406;-4.514;2022-08-20T05:11:04;15.40;71.40
73750;SHT30;62058;48.406;-4.514;2022-08-20T05:13:29;15.43;72.09
73750;SHT30;62058;48.406;-4.514;2022-08-20T05:15:55;15.42;72.18
73750;SHT30;62058;48.406;-4.514;2022-08-20T05:18:23;15.45;72.11
73750;SHT30;62058;48.406;-4.514;2022-08-20T05:20:50;15.45;72.58
73750;SHT30;62058;48.406;-4.514;2022-08-20T05:23:18;15.46;73.24
73750;SHT30;62058;48.406;-4.514;2022-08-20T05:25:47;15.46;72.86
73750;SHT30;62058;48.406;-4.514;2022-08-20T05:28:28;15.50;72.11
73750;SHT30;62058;48.406;-4.514;2022-08-20T05:30:58;15.48;72.51
73750;SHT30;62058;48.406;-4.514;2022-08-20T05:33:23;15.53;73.33
73750;SHT30;62058;48.406;-4.514;2022-08-20T05:35:51;15.55;72.70
73750;SHT30;62058;48.406;-4.514;2022-08-20T05:38:18;15.58;72.93
73750;SHT30;62058;48.406;-4.514;2022-08-20T05:40:45;15.60;72.61
73750;SHT30;62058;48.406;-4.514;2022-08-20T05:43:11;15.65;72.17
73750;SHT30;62058;48.406;-4.514;2022-08-20T05:45:38;15.69;72.33
73750;SHT30;62058;48.406;-4.514;2022-08-20T05:48:18;15.70;71.85
73750;SHT30;62058;48.406;-4.514;2022-08-20T05:50:45;15.73;72.15
73750;SHT30;62058;48.406;-4.514;2022-08-20T05:53:13;15.78;71.31
73750;SHT30;62058;48.406;-4.514;2022-08-20T05:55:39;15.80;71.23
73750;SHT30;62058;48.406;-4.514;2022-08-20T05:58:07;15.85;70.52
73750;SHT30;62058;48.406;-4.514;2022-08-20T06:00:34;15.89;70.71
73750;SHT30;62058;48.406;-4.514;2022-08-20T06:02:59;15.91;70.07
73750;SHT30;62058;48.406;-4.514;2022-08-20T06:05:43;15.96;69.84
73750;SHT30;62058;48.406;-4.514;2022-08-20T06:08:10;16.03;69.87
73750;SHT30;62058;48.406;-4.514;2022-08-20T06:10:38;16.11;69.90
73750;SHT30;62058;48.406;-4.514;2022-08-20T06:13:04;16.17;69.94
73750;SHT30;62058;48.406;-4.514;2022-08-20T06:15:30;16.23;69.68
73750;SHT30;62058;48.406;-4.514;2022-08-20T06:17:56;16.28;69.69
73750;SHT30;62058;48.406;-4.514;2022-08-20T06:20:21;16.37;69.64
73750;SHT30;62058;48.406;-4.514;2022-08-20T06:22:47;16.44;69.46
73750;SHT30;62058;48.406;-4.514;2022-08-20T06:25:12;16.52;69.33
73750;SHT30;62058;48.406;-4.514;2022-08-20T06:27:41;16.52;69.90
73750;SHT30;62058;48.406;-4.514;2022-08-20T06:30:09;16.61;69.72
73750;SHT30;62058;48.406;-4.514;2022-08-20T06:32:35;16.69;69.54
73750;SHT30;62058;48.406;-4.514;2022-08-20T06:35:03;16.79;70.24
73750;SHT30;62058;48.406;-4.514;2022-08-20T06:37:30;16.89;69.89
73750;SHT30;62058;48.406;-4.514;2022-08-20T06:40:00;16.96;70.15
73750;SHT30;62058;48.406;-4.514;2022-08-20T06:42:27;17.06;70.15
73750;SHT30;62058;48.406;-4.514;2022-08-20T06:44:52;17.13;69.01
73750;SHT30;62058;48.406;-4.514;2022-08-20T06:47:19;17.16;69.19
73750;SHT30;62058;48.406;-4.514;2022-08-20T06:49:46;17.20;69.21
73750;SHT30;62058;48.406;-4.514;2022-08-20T06:52:12;17.26;69.64
73750;SHT30;62058;48.406;-4.514;2022-08-20T06:54:40;17.32;71.06
73750;SHT30;62058;48.406;-4.514;2022-08-20T06:57:05;17.42;71.22
73750;SHT30;62058;48.406;-4.514;2022-08-20T06:59:30;17.54;71.64
73750;SHT30;62058;48.406;-4.514;2022-08-20T07:01:56;17.59;71.79
73750;SHT30;62058;48.406;-4.514;2022-08-20T07:04:23;17.67;70.49
73750;SHT30;62058;48.406;-4.514;2022-08-20T07:06:54;17.77;70.89
73750;SHT30;62058;48.406;-4.514;2022-08-20T07:09:22;17.90;70.11
73750;SHT30;62058;48.406;-4.514;2022-08-20T07:11:47;17.97;70.50
73750;SHT30;62058;48.406;-4.514;2022-08-20T07:14:14;18.02;70.69
73750;SHT30;62058;48.406;-4.514;2022-08-20T07:16:40;18.12;70.87
73750;SHT30;62058;48.406;-4.514;2022-08-20T07:19:06;18.19;70.12
73750;SHT30;62058;48.406;-4.514;2022-08-20T07:21:32;18.29;71.12
73750;SHT30;62058;48.406;-4.514;2022-08-20T07:23:58;18.38;71.23
73750;SHT30;62058;48.406;-4.514;2022-08-20T07:26:23;18.48;71.62
73750;SHT30;62058;48.406;-4.514;2022-08-20T07:28:49;18.49;72.15
73750;SHT30;62058;48.406;-4.514;2022-08-20T07:31:15;18.55;72.74
73750;SHT30;62058;48.406;-4.514;2022-08-20T07:33:59;18.68;71.95
73750;SHT30;62058;48.406;-4.514;2022-08-20T07:36:24;18.79;71.62
73750;SHT30;62058;48.406;-4.514;2022-08-20T07:38:50;18.88;72.58
73750;SHT30;62058;48.406;-4.514;2022-08-20T07:41:18;18.98;70.43
73750;SHT30;62058;48.406;-4.514;2022-08-20T07:43:44;19.03;71.95
73750;SHT30;62058;48.406;-4.514;2022-08-20T07:46:11;19.09;71.11
73750;SHT30;62058;48.406;-4.514;2022-08-20T07:48:41;19.13;72.38
73750;SHT30;62058;48.406;-4.514;2022-08-20T07:51:10;19.14;71.33
73750;SHT30;62058;48.406;-4.514;2022-08-20T07:53:37;19.20;70.72
73750;SHT30;62058;48.406;-4.514;2022-08-20T07:56:05;19.22;70.95
73750;SHT30;62058;48.406;-4.514;2022-08-20T07:58:32;19.31;70.78
73750;SHT30;62058;48.406;-4.514;2022-08-20T08:00:59;19.41;71.15
73750;SHT30;62058;48.406;-4.514;2022-08-20T08:03:25;19.43;70.65
73750;SHT30;62058;48.406;-4.514;2022-08-20T08:05:51;19.50;68.78
73750;SHT30;62058;48.406;-4.514;2022-08-20T08:08:22;19.54;69.54
73750;SHT30;62058;48.406;-4.514;2022-08-20T08:10:51;19.60;68.95
73750;SHT30;62058;48.406;-4.514;2022-08-20T08:13:19;19.68;68.76
73750;SHT30;62058;48.406;-4.514;2022-08-20T08:15:47;19.65;68.62
73750;SHT30;62058;48.406;-4.514;2022-08-20T08:18:18;19.68;68.02
73750;SHT30;62058;48.406;-4.514;2022-08-20T08:20:47;19.67;67.10
73750;SHT30;62058;48.406;-4.514;2022-08-20T08:23:13;19.68;67.69
73750;SHT30;62058;48.406;-4.514;2022-08-20T08:25:40;19.63;68.17
73750;SHT30;62058;48.406;-4.514;2022-08-20T08:28:11;19.60;67.46
73750;SHT30;62058;48.406;-4.514;2022-08-20T08:30:41;19.63;67.56
73750;SHT30;62058;48.406;-4.514;2022-08-20T08:33:16;19.73;67.34
73750;SHT30;62058;48.406;-4.514;2022-08-20T08:36:05;19.74;67.32
73750;SHT30;62058;48.406;-4.514;2022-08-20T08:38:32;19.82;66.94
73750;SHT30;62058;48.406;-4.514;2022-08-20T08:41:10;19.91;66.75
73750;SHT30;62058;48.406;-4.514;2022-08-20T08:43:38;19.92;66.31
73750;SHT30;62058;48.406;-4.514;2022-08-20T08:46:08;20.04;65.59
73750;SHT30;62058;48.406;-4.514;2022-08-20T08:48:42;20.22;65.06
73750;SHT30;62058;48.406;-4.514;2022-08-20T08:51:10;20.33;64.58
73750;SHT30;62058;48.406;-4.514;2022-08-20T08:53:56;20.35;64.58
73750;SHT30;62058;48.406;-4.514;2022-08-20T08:56:25;20.42;64.16
73750;SHT30;62058;48.406;-4.514;2022-08-20T08:58:51;20.57;62.65
73750;SHT30;62058;48.406;-4.514;2022-08-20T09:01:21;20.67;63.99
73750;SHT30;62058;48.406;-4.514;2022-08-20T09:03:49;20.76;62.88
73750;SHT30;62058;48.406;-4.514;2022-08-20T09:06:21;20.93;60.67
73750;SHT30;62058;48.406;-4.514;2022-08-20T09:08:51;21.03;58.96
73750;SHT30;62058;48.406;-4.514;2022-08-20T09:11:19;21.21;62.15
73750;SHT30;62058;48.406;-4.514;2022-08-20T09:13:45;21.31;60.74
73750;SHT30;62058;48.406;-4.514;2022-08-20T09:16:11;21.38;58.73
73750;SHT30;62058;48.406;-4.514;2022-08-20T09:18:38;21.54;57.14
73750;SHT30;62058;48.406;-4.514;2022-08-20T09:21:05;21.71;56.94
73750;SHT30;62058;48.406;-4.514;2022-08-20T09:23:31;21.92;56.98
73750;SHT30;62058;48.406;-4.514;2022-08-20T09:25:56;22.06;56.99
73750;SHT30;62058;48.406;-4.514;2022-08-20T09:28:21;22.16;56.43
73750;SHT30;62058;48.406;-4.514;2022-08-20T09:30:47;22.26;56.65
73750;SHT30;62058;48.406;-4.514;2022-08-20T09:33:12;22.19;55.50
73750;SHT30;62058;48.406;-4.514;2022-08-20T09:35:38;22.09;55.99
73750;SHT30;62058;48.406;-4.514;2022-08-20T09:38:05;21.96;56.64
73750;SHT30;62058;48.406;-4.514;2022-08-20T09:40:30;21.93;55.55
73750;SHT30;62058;48.406;-4.514;2022-08-20T09:42:56;21.88;54.65
73750;SHT30;62058;48.406;-4.514;2022-08-20T09:45:21;21.81;55.46
73750;SHT30;62058;48.406;-4.514;2022-08-20T09:47:47;21.62;54.84
73750;SHT30;62058;48.406;-4.514;2022-08-20T09:50:13;21.50;55.81
73750;SHT30;62058;48.406;-4.514;2022-08-20T09:52:45;21.55;56.71
73750;SHT30;62058;48.406;-4.514;2022-08-20T09:55:20;21.55;56.43
73750;SHT30;62058;48.406;-4.514;2022-08-20T09:57:46;21.58;56.14
73750;SHT30;62058;48.406;-4.514;2022-08-20T10:00:13;21.65;56.00
73750;SHT30;62058;48.406;-4.514;2022-08-20T10:02:39;21.62;55.37
73750;SHT30;62058;48.406;-4.514;2022-08-20T10:05:06;21.65;55.55
73750;SHT30;62058;48.406;-4.514;2022-08-20T10:07:32;21.61;55.56
73750;SHT30;62058;48.406;-4.514;2022-08-20T10:09:59;21.59;55.98
73750;SHT30;62058;48.406;-4.514;2022-08-20T10:12:25;21.62;55.54
73750;SHT30;62058;48.406;-4.514;2022-08-20T10:14:50;21.66;55.40
73750;SHT30;62058;48.406;-4.514;2022-08-20T10:17:16;21.75;55.63
73750;SHT30;62058;48.406;-4.514;2022-08-20T10:19:41;21.89;55.17
73750;SHT30;62058;48.406;-4.514;2022-08-20T10:22:06;22.06;54.27
73750;SHT30;62058;48.406;-4.514;2022-08-20T10:24:33;22.19;54.49
73750;SHT30;62058;48.406;-4.514;2022-08-20T10:26:59;22.13;53.16
73750;SHT30;62058;48.406;-4.514;2022-08-20T10:29:26;22.24;54.08
73750;SHT30;62058;48.406;-4.514;2022-08-20T10:31:52;22.29;54.12
73750;SHT30;62058;48.406;-4.514;2022-08-20T10:34:19;22.32;53.68
73750;SHT30;62058;48.406;-4.514;2022-08-20T10:36:44;22.22;52.90
73750;SHT30;62058;48.406;-4.514;2022-08-20T10:39:10;22.06;53.36
73750;SHT30;62058;48.406;-4.514;2022-08-20T10:41:35;21.89;53.03
73750;SHT30;62058;48.406;-4.514;2022-08-20T10:44:01;21.89;53.66
73750;SHT30;62058;48.406;-4.514;2022-08-20T10:46:27;21.86;54.21
73750;SHT30;62058;48.406;-4.514;2022-08-20T10:48:52;21.95;54.25
73750;SHT30;62058;48.406;-4.514;2022-08-20T10:51:18;21.98;53.51
73750;SHT30;62058;48.406;-4.514;2022-08-20T10:53:43;22.06;53.75
73750;SHT30;62058;48.406;-4.514;2022-08-20T10:56:08;22.02;52.37
73750;SHT30;62058;48.406;-4.514;2022-08-20T10:58:34;22.05;53.70
73750;SHT30;62058;48.406;-4.514;2022-08-20T11:00:59;22.12;52.85
73750;SHT30;62058;48.406;-4.514;2022-08-20T11:03:24;22.08;53.21
73750;SHT30;62058;48.406;-4.514;2022-08-20T11:05:50;22.05;52.90
73750;SHT30;62058;48.406;-4.514;2022-08-20T11:08:15;22.03;52.56
73750;SHT30;62058;48.406;-4.514;2022-08-20T11:10:43;21.92;52.11
73750;SHT30;62058;48.406;-4.514;2022-08-20T11:13:09;21.88;52.02
73750;SHT30;62058;48.406;-4.514;2022-08-20T11:15:41;21.91;52.99
73750;SHT30;62058;48.406;-4.514;2022-08-20T11:18:08;21.98;53.64
73750;SHT30;62058;48.406;-4.514;2022-08-20T11:20:34;22.09;53.25
73750;SHT30;62058;48.406;-4.514;2022-08-20T11:23:00;22.16;53.13
73750;SHT30;62058;48.406;-4.514;2022-08-20T11:25:27;22.10;53.02
73750;SHT30;62058;48.406;-4.514;2022-08-20T11:27:54;22.08;51.90
73750;SHT30;62058;48.406;-4.514;2022-08-20T11:30:37;22.06;52.86
73750;SHT30;62058;48.406;-4.514;2022-08-20T11:33:04;22.16;52.31
73750;SHT30;62058;48.406;-4.514;2022-08-20T11:35:32;22.09;51.56
73750;SHT30;62058;48.406;-4.514;2022-08-20T11:37:58;22.17;52.58
73750;SHT30;62058;48.406;-4.514;2022-08-20T11:40:24;22.13;51.50
73750;SHT30;62058;48.406;-4.514;2022-08-20T11:42:50;22.20;51.63
73750;SHT30;62058;48.406;-4.514;2022-08-20T11:45:16;22.36;52.43
73750;SHT30;62058;48.406;-4.514;2022-08-20T11:47:41;22.43;51.76
73750;SHT30;62058;48.406;-4.514;2022-08-20T11:50:11;22.56;50.70
73750;SHT30;62058;48.406;-4.514;2022-08-20T11:52:37;22.57;50.95
73750;SHT30;62058;48.406;-4.514;2022-08-20T11:55:04;22.73;50.96
73750;SHT30;62058;48.406;-4.514;2022-08-20T11:57:32;22.63;49.99
73750;SHT30;62058;48.406;-4.514;2022-08-20T12:00:00;22.74;50.14
73750;SHT30;62058;48.406;-4.514;2022-08-20T12:02:27;22.86;49.60
73750;SHT30;62058;48.406;-4.514;2022-08-20T12:04:53;23.00;49.52
73750;SHT30;62058;48.406;-4.514;2022-08-20T12:07:21;23.18;48.45
73750;SHT30;62058;48.406;-4.514;2022-08-20T12:09:47;23.31;48.33
73750;SHT30;62058;48.406;-4.514;2022-08-20T12:12:14;23.35;48.17
73750;SHT30;62058;48.406;-4.514;2022-08-20T12:14:40;23.41;47.78
73750;SHT30;62058;48.406;-4.514;2022-08-20T12:17:13;23.45;47.62
73750;SHT30;62058;48.406;-4.514;2022-08-20T12:19:41;23.78;48.44
73750;SHT30;62058;48.406;-4.514;2022-08-20T12:22:07;24.06;46.54
73750;SHT30;62058;48.406;-4.514;2022-08-20T12:24:32;24.33;45.70
73750;SHT30;62058;48.406;-4.514;2022-08-20T12:27:16;24.68;45.58
73750;SHT30;62058;48.406;-4.514;2022-08-20T12:29:43;24.82;44.05
73750;SHT30;62058;48.406;-4.514;2022-08-20T12:32:10;25.35;45.16
73750;SHT30;62058;48.406;-4.514;2022-08-20T12:34:37;25.41;43.18
73750;SHT30;62058;48.406;-4.514;2022-08-20T12:37:07;25.49;42.87
73750;SHT30;62058;48.406;-4.514;2022-08-20T12:39:34;25.39;43.98
73750;SHT30;62058;48.406;-4.514;2022-08-20T12:42:02;25.53;44.62
73750;SHT30;62058;48.406;-4.514;2022-08-20T12:44:29;25.76;44.75
73750;SHT30;62058;48.406;-4.514;2022-08-20T12:49:41;26.00;43.57
73750;SHT30;62058;48.406;-4.514;2022-08-20T12:52:10;25.87;41.45
73750;SHT30;62058;48.406;-4.514;2022-08-20T12:54:35;26.00;43.48
73750;SHT30;62058;48.406;-4.514;2022-08-20T12:57:01;26.28;41.94
73750;SHT30;62058;48.406;-4.514;2022-08-20T12:59:26;26.71;41.77
73750;SHT30;62058;48.406;-4.514;2022-08-20T13:01:52;26.78;39.87
73750;SHT30;62058;48.406;-4.514;2022-08-20T13:04:18;27.23;40.85
73750;SHT30;62058;48.406;-4.514;2022-08-20T13:06:44;27.60;39.96
73750;SHT30;62058;48.406;-4.514;2022-08-20T13:09:10;27.46;39.42
73750;SHT30;62058;48.406;-4.514;2022-08-20T13:11:35;27.28;39.68
73750;SHT30;62058;48.406;-4.514;2022-08-20T13:14:01;27.53;38.36
73750;SHT30;62058;48.406;-4.514;2022-08-20T13:16:26;27.91;38.02
73750;SHT30;62058;48.406;-4.514;2022-08-20T13:18:52;28.18;39.30
73750;SHT30;62058;48.406;-4.514;2022-08-20T13:21:17;28.25;36.84
73750;SHT30;62058;48.406;-4.514;2022-08-20T13:23:42;28.31;37.07
73750;SHT30;62058;48.406;-4.514;2022-08-20T13:26:08;28.80;40.08
73750;SHT30;62058;48.406;-4.514;2022-08-20T13:28:34;29.13;35.47
73750;SHT30;62058;48.406;-4.514;2022-08-20T13:30:59;29.34;35.57
73750;SHT30;62058;48.406;-4.514;2022-08-20T13:33:29;29.40;34.90
73750;SHT30;62058;48.406;-4.514;2022-08-20T13:35:55;29.56;37.98
73750;SHT30;62058;48.406;-4.514;2022-08-20T13:38:21;29.64;37.35
73750;SHT30;62058;48.406;-4.514;2022-08-20T13:40:46;29.27;36.87
73750;SHT30;62058;48.406;-4.514;2022-08-20T13:43:12;28.82;35.66
73750;SHT30;62058;48.406;-4.514;2022-08-20T13:45:37;28.24;36.80
73750;SHT30;62058;48.406;-4.514;2022-08-20T13:48:04;28.04;38.15
73750;SHT30;62058;48.406;-4.514;2022-08-20T13:50:31;27.91;38.14
73750;SHT30;62058;48.406;-4.514;2022-08-20T13:52:56;28.00;38.22
73750;SHT30;62058;48.406;-4.514;2022-08-20T13:55:24;28.18;38.76
73750;SHT30;62058;48.406;-4.514;2022-08-20T13:57:50;28.21;37.25
73750;SHT30;62058;48.406;-4.514;2022-08-20T14:02:46;28.64;37.81
73750;SHT30;62058;48.406;-4.514;2022-08-20T14:05:12;28.93;37.14
73750;SHT30;62058;48.406;-4.514;2022-08-20T14:07:37;29.05;36.40
73750;SHT30;62058;48.406;-4.514;2022-08-20T14:10:09;29.03;37.06
73750;SHT30;62058;48.406;-4.514;2022-08-20T14:12:35;29.37;36.80
73750;SHT30;62058;48.406;-4.514;2022-08-20T14:15:01;29.12;36.04
73750;SHT30;62058;48.406;-4.514;2022-08-20T14:17:32;29.31;36.22
73750;SHT30;62058;48.406;-4.514;2022-08-20T14:20:02;29.49;37.01
73750;SHT30;62058;48.406;-4.514;2022-08-20T14:22:29;28.92;36.12
73750;SHT30;62058;48.406;-4.514;2022-08-20T14:24:55;29.34;36.86
73750;SHT30;62058;48.406;-4.514;2022-08-20T14:27:21;29.25;36.25
73750;SHT30;62058;48.406;-4.514;2022-08-20T14:29:49;29.42;36.69
73750;SHT30;62058;48.406;-4.514;2022-08-20T14:32:14;29.60;36.12
73750;SHT30;62058;48.406;-4.514;2022-08-20T14:34:40;29.97;36.21
73750;SHT30;62058;48.406;-4.514;2022-08-20T14:37:36;29.64;35.26
73750;SHT30;62058;48.406;-4.514;2022-08-20T14:40:08;29.26;36.01
73750;SHT30;62058;48.406;-4.514;2022-08-20T14:42:33;28.80;37.01
73750;SHT30;62058;48.406;-4.514;2022-08-20T14:44:59;28.78;37.02
73750;SHT30;62058;48.406;-4.514;2022-08-20T14:47:32;28.64;37.15
73750;SHT30;62058;48.406;-4.514;2022-08-20T14:50:00;28.20;37.82
73750;SHT30;62058;48.406;-4.514;2022-08-20T14:52:27;27.91;38.12
73750;SHT30;62058;48.406;-4.514;2022-08-20T14:54:53;27.63;38.31
73750;SHT30;62058;48.406;-4.514;2022-08-20T14:57:19;27.80;38.91
73750;SHT30;62058;48.406;-4.514;2022-08-20T14:59:45;27.79;38.15
73750;SHT30;62058;48.406;-4.514;2022-08-20T15:02:14;27.56;39.02
73750;SHT30;62058;48.406;-4.514;2022-08-20T15:04:40;27.54;39.31
73750;SHT30;62058;48.406;-4.514;2022-08-20T15:07:12;27.39;39.06
73750;SHT30;62058;48.406;-4.514;2022-08-20T15:09:38;27.36;39.35
73750;SHT30;62058;48.406;-4.514;2022-08-20T15:12:04;27.29;39.20
73750;SHT30;62058;48.406;-4.514;2022-08-20T15:14:29;27.49;39.19
73750;SHT30;62058;48.406;-4.514;2022-08-20T15:16:55;27.80;38.14
73750;SHT30;62058;48.406;-4.514;2022-08-20T15:19:21;28.25;38.00
73750;SHT30;62058;48.406;-4.514;2022-08-20T15:21:47;28.74;36.57
73750;SHT30;62058;48.406;-4.514;2022-08-20T15:24:14;29.15;35.80